Time;durP1;ratioP1;P1;durP2;ratioP2;P2;SDS_P1;SDS_P2;PMS_P1;PMS_P2;Temp;Humidity;BMP_temperature;BMP_pressure;BME280_temperature;BME280_humidity;BME280_pressure;Samples;Min_cycle;Max_cycle;Signal;HPM_P1;HPM_P2
2022/06/13 00:00:46;;;;;;;10.63;6.45;;;13.10;99.90;;;;;;5048649;28;20048;-68
2022/06/13 00:03:11;;;;;;;12.02;6.97;;;13.10;99.90;;;;;;5047959;28;20057;-67
2022/06/13 00:05:37;;;;;;;11.90;5.40;;;13.10;99.90;;;;;;5047813;28;20315;-67
2022/06/13 00:08:03;;;;;;;11.95;5.43;;;13.10;99.90;;;;;;5048343;28;20048;-67
2022/06/13 00:10:29;;;;;;;9.18;5.22;;;13.10;99.90;;;;;;5049186;28;20071;-67
2022/06/13 00:12:54;;;;;;;14.23;4.97;;;13.00;99.90;;;;;;5047982;28;20049;-66
2022/06/13 00:15:20;;;;;;;8.48;4.68;;;12.90;99.90;;;;;;5048623;28;20041;-66
2022/06/13 00:17:46;;;;;;;8.65;4.97;;;12.90;99.90;;;;;;5049098;28;20045;-69
2022/06/13 00:20:12;;;;;;;13.50;5.38;;;12.90;99.90;;;;;;5047587;28;20536;-66
2022/06/13 00:22:38;;;;;;;11.55;4.97;;;12.90;99.90;;;;;;5048406;28;20069;-66
2022/06/13 00:25:04;;;;;;;11.18;5.50;;;12.80;99.90;;;;;;5048501;28;20099;-67
2022/06/13 00:27:31;;;;;;;8.98;5.50;;;12.80;99.90;;;;;;5047408;28;20045;-67
2022/06/13 00:29:57;;;;;;;14.00;5.70;;;12.80;99.90;;;;;;5046795;28;20128;-69
2022/06/13 00:32:22;;;;;;;13.02;5.03;;;14.30;99.90;;;;;;5049023;28;20137;-67
2022/06/13 00:34:48;;;;;;;10.10;5.25;;;12.80;99.90;;;;;;5048860;28;20037;-67
2022/06/13 00:37:14;;;;;;;11.38;5.80;;;12.80;99.90;;;;;;5047998;28;20041;-67
2022/06/13 00:39:41;;;;;;;8.25;4.35;;;12.80;99.90;;;;;;5048591;28;20041;-67
2022/06/13 00:42:06;;;;;;;10.13;4.70;;;12.80;99.90;;;;;;5048352;28;20409;-67
2022/06/13 00:44:35;;;;;;;12.20;4.38;;;12.90;99.90;;;;;;5048025;28;20045;-67
2022/06/13 00:47:02;;;;;;;12.80;5.20;;;12.90;99.90;;;;;;5046738;28;20102;-67
2022/06/13 00:49:34;;;;;;;9.30;4.00;;;12.90;99.90;;;;;;5047232;28;20185;-68
2022/06/13 00:52:09;;;;;;;6.78;4.03;;;12.90;99.90;;;;;;5046389;28;20041;-69
2022/06/13 00:54:38;;;;;;;10.50;4.63;;;12.90;99.90;;;;;;5048273;28;20226;-67
2022/06/13 00:57:07;;;;;;;14.18;4.90;;;13.00;99.90;;;;;;5046315;28;20048;-67
2022/06/13 00:59:36;;;;;;;9.98;4.45;;;12.90;99.90;;;;;;5048273;28;20090;-69
2022/06/13 01:02:03;;;;;;;11.05;4.93;;;13.00;99.90;;;;;;5029998;28;20045;-67
2022/06/13 01:04:28;;;;;;;6.97;4.50;;;13.00;99.90;;;;;;5046494;28;20049;-68
2022/06/13 01:06:57;;;;;;;6.38;4.10;;;13.10;99.90;;;;;;5047943;28;20045;-66
2022/06/13 01:11:16;;;;;;;6.93;4.35;;;13.30;99.90;;;;;;5048425;28;20109;-67
2022/06/13 01:12:10;;;;;;;14.43;5.30;;;13.10;99.90;;;;;;5046900;28;20080;-66
2022/06/13 01:14:52;;;;;;;10.68;5.00;;;13.00;99.90;;;;;;5047791;28;20053;-67
2022/06/13 01:17:55;;;;;;;7.90;4.40;;;13.00;99.90;;;;;;5046662;28;20143;-66
2022/06/13 01:20:32;;;;;;;12.23;4.57;;;13.00;99.90;;;;;;5046879;28;20064;-67
2022/06/13 01:23:33;;;;;;;11.27;4.70;;;12.90;99.90;;;;;;5046446;28;20063;-67
2022/06/13 01:26:04;;;;;;;13.05;5.20;;;13.00;99.90;;;;;;5046646;28;20041;-66
2022/06/13 01:28:54;;;;;;;17.98;5.47;;;12.90;99.90;;;;;;5047902;28;20128;-66
2022/06/13 01:31:53;;;;;;;7.43;4.72;;;13.00;99.90;;;;;;5047668;28;20110;-68
2022/06/13 01:35:01;;;;;;;12.80;5.43;;;13.10;99.90;;;;;;5047413;28;20068;-69
2022/06/13 01:37:35;;;;;;;8.75;4.65;;;13.10;99.90;;;;;;5047921;28;20049;-66
2022/06/13 01:40:33;;;;;;;12.90;5.68;;;13.10;99.90;;;;;;5046565;28;20413;-67
2022/06/13 01:43:32;;;;;;;11.65;4.75;;;13.20;99.90;;;;;;5025456;28;20106;-67
2022/06/13 01:46:38;;;;;;;14.23;5.13;;;13.20;99.90;;;;;;5039669;28;20061;-69
2022/06/13 01:49:32;;;;;;;9.50;4.80;;;13.20;99.90;;;;;;5045711;28;20057;-66
2022/06/13 01:52:15;;;;;;;14.75;5.65;;;13.10;99.90;;;;;;5047090;28;20127;-69
2022/06/13 01:55:12;;;;;;;10.10;4.85;;;13.10;99.90;;;;;;5045303;28;20398;-69
2022/06/13 01:57:38;;;;;;;10.82;5.55;;;13.20;99.90;;;;;;5046203;28;20182;-67
2022/06/13 02:00:11;;;;;;;13.27;5.53;;;13.10;99.90;;;;;;5045351;28;20561;-67
2022/06/13 02:02:46;;;;;;;10.00;4.82;;;13.10;99.90;;;;;;5045776;28;20049;-66
2022/06/13 02:05:25;;;;;;;9.98;5.43;;;13.10;99.90;;;;;;5045730;28;20045;-67
2022/06/13 02:07:57;;;;;;;11.20;5.13;;;13.10;99.90;;;;;;5048098;28;20057;-66
2022/06/13 02:10:25;;;;;;;;;;;13.00;99.90;;;;;;5061430;28;20080;-67
2022/06/13 02:12:56;;;;;;;9.35;4.93;;;13.10;99.90;;;;;;5053058;28;19950;-67
2022/06/13 02:15:27;;;;;;;12.18;5.82;;;13.00;99.90;;;;;;5066021;28;20064;-67
2022/06/13 02:18:27;;;;;;;15.00;5.90;;;13.10;99.90;;;;;;5066345;28;20497;-67
2022/06/13 02:20:58;;;;;;;12.75;6.00;;;13.10;99.90;;;;;;5059003;28;20052;-67
2022/06/13 02:23:29;;;;;;;11.38;4.97;;;13.10;99.90;;;;;;5066206;28;20052;-66
2022/06/13 02:26:07;;;;;;;16.35;6.07;;;13.10;99.90;;;;;;5062559;28;20059;-66
2022/06/13 02:28:56;;;;;;;13.75;5.30;;;13.10;99.90;;;;;;5055032;28;20053;-67
2022/06/13 02:31:35;;;;;;;12.93;6.10;;;13.10;99.90;;;;;;5060878;28;20080;-67
2022/06/13 02:34:05;;;;;;;13.00;4.75;;;13.10;99.90;;;;;;5046418;28;20067;-67
2022/06/13 02:36:43;;;;;;;14.73;4.82;;;13.10;99.90;;;;;;5045791;28;20592;-67
2022/06/13 02:39:31;;;;;;;12.32;4.40;;;13.10;99.90;;;;;;5045019;28;20152;-66
2022/06/13 02:42:07;;;;;;;13.50;5.13;;;13.20;99.90;;;;;;5046466;28;20106;-67
2022/06/13 02:44:54;;;;;;;11.05;5.50;;;13.20;99.90;;;;;;5045817;28;20037;-67
2022/06/13 02:47:28;;;;;;;11.13;5.45;;;13.20;99.90;;;;;;5044803;28;20056;-67
2022/06/13 02:50:08;;;;;;;8.90;4.88;;;13.20;99.90;;;;;;5045684;28;20049;-67
2022/06/13 02:52:39;;;;;;;12.05;5.90;;;13.20;99.90;;;;;;5045064;28;20049;-67
2022/06/13 02:55:08;;;;;;;14.80;6.35;;;13.10;99.90;;;;;;5045756;28;20603;-67
2022/06/13 02:57:52;;;;;;;13.50;5.53;;;13.10;99.90;;;;;;5043828;28;20074;-67
2022/06/13 03:00:23;;;;;;;11.60;4.65;;;13.10;99.90;;;;;;5045231;28;20647;-67
2022/06/13 03:03:21;;;;;;;9.35;5.78;;;13.20;99.90;;;;;;5046003;28;20048;-69
2022/06/13 03:05:51;;;;;;;13.40;5.55;;;13.10;99.90;;;;;;5045892;28;20444;-67
2022/06/13 03:08:37;;;;;;;14.13;4.60;;;13.10;99.90;;;;;;5046477;28;20118;-66
2022/06/13 03:11:37;;;;;;;14.45;5.65;;;13.20;99.90;;;;;;5044874;28;20518;-68
2022/06/13 03:14:10;;;;;;;10.18;4.93;;;13.10;99.90;;;;;;5044568;28;20107;-67
2022/06/13 03:16:57;;;;;;;7.55;4.35;;;13.10;99.90;;;;;;5046051;28;20055;-66
2022/06/13 03:19:37;;;;;;;10.70;4.88;;;13.10;99.90;;;;;;5044129;28;20420;-66
2022/06/13 03:22:08;;;;;;;11.60;4.70;;;13.10;99.90;;;;;;5045606;28;20045;-67
2022/06/13 03:24:48;;;;;;;10.32;5.03;;;13.10;99.90;;;;;;5045269;28;20045;-66
2022/06/13 03:27:29;;;;;;;11.88;4.32;;;13.10;99.90;;;;;;5045674;28;20128;-66
2022/06/13 03:30:03;;;;;;;9.63;4.30;;;13.10;99.90;;;;;;5048321;28;20537;-66
2022/06/13 03:32:34;;;;;;;9.65;4.55;;;13.00;99.90;;;;;;5048007;28;20052;-67
2022/06/13 03:35:04;;;;;;;11.23;4.38;;;13.00;99.90;;;;;;5049505;28;20052;-67
2022/06/13 03:37:36;;;;;;;6.55;3.58;;;13.00;99.90;;;;;;5049864;28;20083;-66
2022/06/13 03:40:13;;;;;;;13.48;4.88;;;13.00;99.90;;;;;;5048955;28;20578;-66
2022/06/13 03:42:54;;;;;;;10.43;4.28;;;13.00;99.90;;;;;;5049997;28;20343;-67
2022/06/13 03:45:23;;;;;;;10.55;4.30;;;13.10;99.90;;;;;;5049640;28;20063;-67
2022/06/13 03:47:49;;;;;;;7.90;3.90;;;13.10;99.90;;;;;;5048961;28;20091;-66
2022/06/13 03:50:21;;;;;;;12.27;4.45;;;13.10;99.90;;;;;;5049563;28;20120;-66
2022/06/13 03:52:53;;;;;;;10.30;3.92;;;13.10;99.90;;;;;;5048854;28;20041;-67
2022/06/13 03:55:29;;;;;;;7.00;3.88;;;14.10;99.90;;;;;;5048387;28;20124;-68
2022/06/13 03:58:16;;;;;;;8.35;3.78;;;13.10;99.90;;;;;;5049398;28;20099;-66
2022/06/13 04:01:05;;;;;;;9.35;3.92;;;13.10;99.90;;;;;;5048285;28;20517;-67
2022/06/13 04:03:31;;;;;;;8.38;3.63;;;13.10;99.90;;;;;;5048120;28;20055;-67
2022/06/13 04:06:03;;;;;;;14.82;4.45;;;13.20;99.90;;;;;;5031455;28;20394;-67
2022/06/13 04:08:32;;;;;;;;;;;13.20;99.90;;;;;;5048915;28;20055;-66
2022/06/13 04:11:31;;;;;;;12.65;4.28;;;13.10;99.90;;;;;;5048857;28;19932;-67
2022/06/13 04:14:07;;;;;;;6.85;3.78;;;13.20;99.90;;;;;;5048476;28;20468;-68
2022/06/13 04:17:01;;;;;;;11.95;4.00;;;13.10;99.90;;;;;;5047793;28;20049;-67
2022/06/13 04:19:27;;;;;;;7.68;3.60;;;13.20;99.90;;;;;;5012470;28;20083;-69
2022/06/13 04:22:04;;;;;;;12.32;3.95;;;13.20;99.90;;;;;;5048508;28;20049;-67
2022/06/13 04:24:55;;;;;;;7.32;3.55;;;13.30;99.90;;;;;;5047777;28;20056;-66
2022/06/13 04:27:44;;;;;;;6.95;3.72;;;13.30;99.90;;;;;;5047493;28;20124;-67
2022/06/13 04:30:19;;;;;;;8.45;3.38;;;13.30;99.90;;;;;;5048575;28;20231;-66
2022/06/13 04:33:03;;;;;;;5.05;3.22;;;13.30;99.90;;;;;;5048883;28;20514;-66
2022/06/13 04:35:34;;;;;;;8.30;3.42;;;13.30;99.90;;;;;;5051144;28;20049;-66
2022/06/13 04:38:03;;;;;;;5.95;2.90;;;13.30;99.90;;;;;;5054250;28;20036;-67
2022/06/13 04:40:33;;;;;;;6.15;3.10;;;13.40;99.90;;;;;;5051342;28;20056;-67
2022/06/13 04:43:00;;;;;;;6.22;3.00;;;13.40;99.90;;;;;;5049996;28;20057;-67
2022/06/13 04:45:53;;;;;;;9.90;3.13;;;13.50;99.90;;;;;;5054818;28;20052;-66
2022/06/13 04:48:20;;;;;;;5.43;2.38;;;13.50;99.90;;;;;;5051564;28;20052;-66
2022/06/13 04:50:49;;;;;;;5.28;2.13;;;13.50;99.90;;;;;;5052625;28;20041;-68
2022/06/13 04:53:24;;;;;;;4.95;1.75;;;13.60;99.90;;;;;;5057063;28;20048;-66
2022/06/13 04:55:52;;;;;;;6.13;2.17;;;13.60;99.90;;;;;;5051204;28;20040;-67
2022/06/13 04:58:30;;;;;;;7.70;1.88;;;13.50;99.90;;;;;;5054950;28;20413;-67
2022/06/13 05:01:02;;;;;;;5.15;2.00;;;13.50;99.90;;;;;;5052916;28;20072;-66
2022/06/13 05:03:31;;;;;;;6.78;1.80;;;13.60;99.90;;;;;;5055210;28;20044;-69
2022/06/13 05:06:01;;;;;;;5.68;1.95;;;13.60;99.90;;;;;;5052165;28;20496;-67
2022/06/13 05:08:29;;;;;;;7.40;2.45;;;13.50;99.90;;;;;;5058020;28;20084;-67
2022/06/13 05:11:05;;;;;;;4.68;1.73;;;14.00;99.90;;;;;;5049409;28;20061;-68
2022/06/13 05:13:31;;;;;;;4.50;1.90;;;13.60;99.90;;;;;;5050775;28;20033;-66
2022/06/13 05:16:11;;;;;;;9.13;2.20;;;13.60;99.90;;;;;;5055777;28;20048;-66
2022/06/13 05:19:06;;;;;;;5.25;1.50;;;13.60;99.90;;;;;;5053843;28;20079;-66
2022/06/13 05:21:52;;;;;;;3.42;1.52;;;13.60;99.90;;;;;;5048215;28;20037;-66
2022/06/13 05:24:27;;;;;;;5.57;1.35;;;13.60;99.90;;;;;;5054834;28;20053;-66
2022/06/13 05:26:53;;;;;;;6.38;1.58;;;13.70;99.90;;;;;;5051429;28;20641;-67
2022/06/13 05:29:18;;;;;;;10.13;1.35;;;13.90;99.90;;;;;;5052605;28;20060;-66
2022/06/13 05:31:44;;;;;;;3.22;1.10;;;13.80;99.90;;;;;;5057609;28;20080;-67
2022/06/13 05:34:21;;;;;;;2.65;0.93;;;13.70;99.90;;;;;;5047108;28;20088;-67
2022/06/13 05:36:47;;;;;;;2.28;0.98;;;13.80;99.90;;;;;;5053911;28;20047;-66
2022/06/13 05:39:12;;;;;;;2.35;1.08;;;13.80;99.90;;;;;;5050795;28;20045;-66
2022/06/13 05:41:38;;;;;;;1.75;0.82;;;13.80;99.90;;;;;;5054088;28;20052;-66
2022/06/13 05:44:05;;;;;;;4.45;0.95;;;13.80;99.90;;;;;;5055296;28;20044;-68
2022/06/13 05:46:36;;;;;;;4.25;1.15;;;13.80;99.90;;;;;;5051492;28;20493;-66
2022/06/13 05:49:03;;;;;;;3.97;1.17;;;13.70;99.90;;;;;;5049871;28;20041;-67
2022/06/13 05:51:29;;;;;;;1.42;1.10;;;13.70;99.90;;;;;;5053951;28;20059;-67
2022/06/13 05:53:57;;;;;;;3.22;0.88;;;13.70;99.90;;;;;;5053134;28;20124;-67
2022/06/13 05:56:25;;;;;;;3.20;1.05;;;13.70;99.90;;;;;;5054279;28;20107;-66
2022/06/13 05:58:51;;;;;;;4.65;0.88;;;13.70;99.90;;;;;;5049546;28;20175;-67
2022/06/13 06:01:17;;;;;;;2.47;1.15;;;13.70;99.90;;;;;;5050872;28;20060;-66
2022/06/13 06:03:44;;;;;;;1.77;0.90;;;13.70;99.90;;;;;;5052019;28;20478;-66
2022/06/13 06:06:21;;;;;;;6.97;1.25;;;13.70;99.90;;;;;;5050236;28;20400;-67
2022/06/13 06:08:47;;;;;;;2.88;1.05;;;13.70;99.90;;;;;;5055917;28;20032;-67
2022/06/13 06:11:13;;;;;;;2.53;1.05;;;13.70;99.90;;;;;;5047666;28;20079;-66
2022/06/13 06:13:38;;;;;;;2.90;1.00;;;13.70;99.90;;;;;;5051626;28;20047;-67
2022/06/13 06:16:04;;;;;;;5.00;1.20;;;13.70;99.90;;;;;;5051667;28;20045;-67
2022/06/13 06:18:30;;;;;;;2.13;0.90;;;13.70;99.90;;;;;;5056728;28;20088;-69
2022/06/13 06:20:57;;;;;;;2.80;1.45;;;13.70;99.90;;;;;;5052630;28;20079;-67
2022/06/13 06:23:22;;;;;;;2.97;0.82;;;13.80;99.90;;;;;;5049862;28;20083;-66
2022/06/13 06:25:48;;;;;;;4.85;0.95;;;13.70;99.90;;;;;;5053402;28;20041;-66
2022/06/13 06:28:19;;;;;;;4.10;1.30;;;13.70;99.90;;;;;;5049317;28;20133;-66
2022/06/13 06:30:45;;;;;;;4.30;1.42;;;13.80;99.90;;;;;;5049180;28;20036;-66
2022/06/13 06:33:11;;;;;;;3.70;1.02;;;14.60;99.90;;;;;;5054109;28;20059;-67
2022/06/13 06:35:37;;;;;;;3.60;0.80;;;13.90;99.90;;;;;;5048903;28;20033;-67
2022/06/13 06:38:03;;;;;;;4.20;1.33;;;14.10;99.90;;;;;;5051898;28;20048;-68
2022/06/13 06:40:29;;;;;;;4.60;1.27;;;14.30;99.90;;;;;;5045453;28;20040;-67
2022/06/13 06:42:55;;;;;;;3.80;1.30;;;14.40;99.90;;;;;;5044939;28;20041;-67
2022/06/13 06:45:25;;;;;;;8.02;1.67;;;14.50;99.90;;;;;;5045903;28;20049;-67
2022/06/13 06:47:51;;;;;;;4.07;0.95;;;14.50;99.90;;;;;;5050177;28;20462;-67
2022/06/13 06:50:20;;;;;;;4.97;1.20;;;14.50;99.90;;;;;;5050067;28;20385;-67
2022/06/13 06:52:45;;;;;;;4.15;0.98;;;14.50;99.90;;;;;;5049613;28;20047;-69
2022/06/13 07:00:43;;;;;;;3.95;1.02;;;14.60;99.90;;;;;;5047658;28;20048;-66
2022/06/13 07:03:09;;;;;;;6.57;1.33;;;14.60;99.90;;;;;;5050508;28;20055;-68
2022/06/13 07:05:35;;;;;;;7.15;1.58;;;14.60;99.90;;;;;;5055804;28;20055;-67
2022/06/13 07:08:01;;;;;;;8.98;1.50;;;14.70;99.90;;;;;;5052314;28;20148;-66
2022/06/13 07:10:27;;;;;;;9.95;1.60;;;14.80;99.90;;;;;;5045548;28;20049;-68
2022/06/13 07:12:52;;;;;;;5.07;1.50;;;15.00;99.90;;;;;;5046172;28;20102;-63
2022/06/13 07:15:18;;;;;;;8.50;1.48;;;15.20;99.90;;;;;;5046329;28;20044;-65
2022/06/13 07:17:44;;;;;;;6.40;1.40;;;15.20;99.90;;;;;;5044997;28;20037;-68
2022/06/13 07:20:11;;;;;;;7.72;1.10;;;15.10;99.90;;;;;;5044961;28;20087;-69
2022/06/13 07:22:44;;;;;;;3.17;1.10;;;15.10;99.90;;;;;;5049462;28;20083;-69
2022/06/13 07:25:17;;;;;;;3.35;1.13;;;14.90;99.90;;;;;;5046406;28;20045;-68
2022/06/13 07:27:43;;;;;;;8.40;1.40;;;14.90;99.90;;;;;;5046425;28;20115;-68
2022/06/13 07:30:12;;;;;;;4.60;1.27;;;14.80;99.90;;;;;;5044969;28;20148;-68
2022/06/13 07:32:39;;;;;;;4.50;1.15;;;14.70;99.90;;;;;;5050805;28;20061;-69
2022/06/13 07:35:05;;;;;;;5.65;1.00;;;14.60;99.90;;;;;;5043824;28;20493;-69
2022/06/13 07:40:15;;;;;;;3.92;0.95;;;14.70;99.90;;;;;;5044846;28;20541;-69
2022/06/13 07:42:46;;;;;;;2.65;0.90;;;14.90;99.90;;;;;;5045745;28;20065;-71
2022/06/13 07:45:16;;;;;;;4.20;0.95;;;15.10;99.90;;;;;;5044449;28;20442;-69
2022/06/13 07:47:42;;;;;;;2.70;1.02;;;15.30;99.90;;;;;;5045798;28;20049;-69
2022/06/13 07:50:11;;;;;;;6.18;1.27;;;15.40;99.90;;;;;;5045280;28;20080;-69
2022/06/13 07:52:37;;;;;;;2.15;0.80;;;15.60;99.90;;;;;;5044778;28;20389;-69
2022/06/13 07:55:03;;;;;;;4.05;1.05;;;15.60;99.90;;;;;;5045110;28;20052;-69
2022/06/13 07:57:29;;;;;;;3.30;0.90;;;15.70;99.90;;;;;;5042345;28;20423;-70
2022/06/13 07:59:54;;;;;;;4.10;0.95;;;15.80;99.90;;;;;;5048056;28;20123;-69
2022/06/13 08:02:20;;;;;;;5.80;0.98;;;15.80;99.90;;;;;;5043777;28;20388;-70
2022/06/13 08:04:46;;;;;;;4.65;1.20;;;15.80;99.90;;;;;;5045391;28;20106;-71
2022/06/13 08:07:15;;;;;;;4.45;0.98;;;15.80;99.90;;;;;;5046624;28;20106;-70
2022/06/13 08:09:41;;;;;;;3.83;1.02;;;15.70;99.90;;;;;;5061025;28;20075;-68
2022/06/13 08:12:09;;;;;;;7.15;1.17;;;15.80;99.90;;;;;;5064771;28;20083;-69
2022/06/13 08:14:34;;;;;;;4.38;1.35;;;15.80;99.90;;;;;;5065155;28;20080;-68
2022/06/13 08:17:00;;;;;;;5.43;0.90;;;16.30;99.90;;;;;;5067520;28;20076;-68
2022/06/13 08:19:25;;;;;;;8.38;1.15;;;16.20;99.90;;;;;;5058257;28;20096;-69
2022/06/13 08:21:51;;;;;;;4.05;0.95;;;16.00;99.90;;;;;;5052816;28;20208;-68
2022/06/13 08:24:18;;;;;;;5.70;0.85;;;16.10;99.90;;;;;;5048781;28;20976;-71
2022/06/13 08:26:44;;;;;;;5.93;1.35;;;16.20;99.90;;;;;;5048727;28;20040;-68
2022/06/13 08:29:11;;;;;;;4.05;0.90;;;16.30;99.90;;;;;;5046627;28;20044;-68
2022/06/13 08:31:36;;;;;;;5.70;1.15;;;16.20;99.90;;;;;;5047002;28;20045;-73
2022/06/13 08:34:04;;;;;;;8.45;1.52;;;16.10;99.90;;;;;;5055211;28;20110;-68
2022/06/13 08:36:30;;;;;;;3.72;0.93;;;16.10;99.90;;;;;;5055220;28;20047;-68
2022/06/13 08:38:55;;;;;;;2.92;1.10;;;16.10;99.90;;;;;;5051814;28;20040;-69
2022/06/13 08:41:32;;;;;;;6.95;0.85;;;16.00;99.90;;;;;;5052167;28;20059;-69
2022/06/13 08:44:05;;;;;;;3.58;1.35;;;16.00;99.90;;;;;;5062729;28;20044;-74
2022/06/13 08:46:36;;;;;;;3.60;0.82;;;16.20;99.90;;;;;;5053824;28;20045;-74
2022/06/13 08:49:10;;;;;;;11.02;1.45;;;16.20;99.90;;;;;;5056170;28;20052;-68
2022/06/13 08:51:45;;;;;;;4.63;1.00;;;16.30;99.90;;;;;;5050814;28;20041;-69
2022/06/13 08:54:20;;;;;;;2.83;0.82;;;16.40;99.90;;;;;;5050061;28;20053;-71
2022/06/13 08:56:49;;;;;;;6.57;1.40;;;16.40;99.90;;;;;;5056226;28;20048;-75
2022/06/13 08:59:43;;;;;;;7.07;1.42;;;16.50;99.90;;;;;;5048534;28;20539;-68
2022/06/13 09:02:31;;;;;;;3.30;0.85;;;16.50;99.90;;;;;;5053246;28;20343;-72
2022/06/13 09:04:58;;;;;;;5.45;1.27;;;16.60;99.90;;;;;;5052295;28;20090;-69
2022/06/13 09:07:37;;;;;;;6.72;1.30;;;16.70;99.90;;;;;;5050630;28;20642;-69
2022/06/13 09:10:23;;;;;;;4.82;1.27;;;16.70;99.90;;;;;;5054505;28;20405;-68
2022/06/13 09:13:10;;;;;;;4.18;1.30;;;16.50;99.90;;;;;;5047293;28;20052;-68
2022/06/13 09:15:51;;;;;;;3.80;1.17;;;16.40;99.90;;;;;;5047424;28;20045;-69
2022/06/13 09:18:32;;;;;;;5.80;1.42;;;16.40;99.90;;;;;;5044747;28;20060;-68
2022/06/13 09:21:07;;;;;;;5.60;1.48;;;16.80;99.90;;;;;;5050472;28;20065;-69
2022/06/13 09:24:08;;;;;;;6.70;1.38;;;16.40;99.90;;;;;;5047013;28;20048;-68
2022/06/13 09:26:48;;;;;;;9.07;1.70;;;16.40;99.90;;;;;;5055480;28;20048;-69
2022/06/13 09:29:45;;;;;;;8.05;1.67;;;16.30;99.90;;;;;;5046180;28;20499;-69
2022/06/13 09:32:21;;;;;;;3.42;1.48;;;16.30;99.90;;;;;;5049071;28;20149;-69
2022/06/13 09:35:10;;;;;;;6.07;1.55;;;16.50;99.90;;;;;;5057371;28;20952;-68
2022/06/13 09:37:48;;;;;;;6.88;1.92;;;16.60;99.90;;;;;;5042530;28;20096;-70
2022/06/13 09:40:19;;;;;;;7.13;2.17;;;16.60;99.90;;;;;;5051749;28;20493;-71
2022/06/13 09:43:18;;;;;;;7.70;1.50;;;16.50;99.90;;;;;;5054429;28;20045;-69
2022/06/13 09:45:56;;;;;;;6.80;1.60;;;16.50;99.90;;;;;;5048497;28;20040;-68
2022/06/13 09:48:31;;;;;;;7.03;1.33;;;16.60;99.90;;;;;;5046690;28;20118;-72
2022/06/13 09:51:16;;;;;;;7.63;1.30;;;16.60;99.90;;;;;;5045193;28;20509;-68
2022/06/13 09:54:09;;;;;;;10.23;2.13;;;16.70;99.90;;;;;;5046735;28;20124;-69
2022/06/13 09:56:54;;;;;;;7.43;1.50;;;16.90;99.90;;;;;;5050078;28;20036;-70
2022/06/13 09:59:53;;;;;;;9.85;1.52;;;17.00;99.90;;;;;;5053692;28;20417;-71
2022/06/13 10:02:34;;;;;;;3.58;1.17;;;16.80;99.90;;;;;;5049887;28;20505;-70
2022/06/13 10:05:17;;;;;;;4.50;1.23;;;16.60;99.90;;;;;;5054911;28;20036;-69
2022/06/13 10:08:10;;;;;;;7.20;1.55;;;16.70;99.90;;;;;;5050047;28;20405;-70
2022/06/13 10:10:46;;;;;;;4.65;1.13;;;16.80;99.90;;;;;;5052725;28;20056;-70
2022/06/13 10:13:27;;;;;;;4.93;1.48;;;16.70;99.90;;;;;;5051557;28;20049;-68
2022/06/13 10:16:14;;;;;;;4.32;1.10;;;16.60;99.90;;;;;;5052138;28;20064;-69
2022/06/13 10:18:46;;;;;;;8.18;1.95;;;16.60;99.90;;;;;;5050935;28;20053;-68
2022/06/13 10:21:30;;;;;;;14.65;2.30;;;16.80;99.90;;;;;;5052372;28;20492;-68
2022/06/13 10:24:18;;;;;;;3.03;1.10;;;16.90;99.90;;;;;;5050430;28;20596;-68
2022/06/13 10:27:06;;;;;;;5.03;1.70;;;16.90;99.90;;;;;;5053792;28;20627;-69
2022/06/13 10:29:58;;;;;;;5.57;1.70;;;16.90;99.90;;;;;;5045741;28;20045;-68
2022/06/13 10:32:57;;;;;;;8.30;2.00;;;16.80;99.90;;;;;;5047286;28;20049;-69
2022/06/13 10:35:52;;;;;;;6.93;1.33;;;16.80;99.90;;;;;;5047116;28;20087;-68
2022/06/13 10:38:35;;;;;;;6.60;2.03;;;16.70;99.90;;;;;;5044321;28;20052;-69
2022/06/13 10:41:01;;;;;;;7.88;1.83;;;16.70;99.90;;;;;;5047231;28;20064;-69
2022/06/13 10:43:27;;;;;;;4.63;1.70;;;17.00;99.90;;;;;;5046221;28;20119;-68
2022/06/13 10:45:53;;;;;;;7.60;1.95;;;16.60;99.90;;;;;;5052337;28;20440;-69
2022/06/13 10:48:39;;;;;;;4.97;1.48;;;16.80;99.90;;;;;;5045148;28;20056;-68
2022/06/13 10:51:05;;;;;;;7.45;1.75;;;17.00;99.90;;;;;;5045714;28;20060;-70
2022/06/13 10:53:38;;;;;;;8.48;1.90;;;17.20;99.90;;;;;;5045492;28;20051;-68
2022/06/13 10:56:09;;;;;;;7.00;1.70;;;17.20;99.90;;;;;;5048367;28;20052;-68
2022/06/13 10:58:48;;;;;;;2.87;1.37;;;17.10;99.90;;;;;;5045681;28;21546;-68
2022/06/13 11:01:19;;;;;;;5.78;1.55;;;16.90;99.90;;;;;;5048063;28;20045;-68
2022/06/13 11:04:06;;;;;;;5.22;1.60;;;16.80;99.90;;;;;;5051247;28;20045;-68
2022/06/13 11:06:46;;;;;;;4.90;1.67;;;16.80;99.90;;;;;;5043726;28;20080;-68
2022/06/13 11:09:26;;;;;;;6.88;1.92;;;16.80;99.90;;;;;;5043556;28;20492;-69
2022/06/13 11:11:58;;;;;;;7.40;1.48;;;17.10;99.90;;;;;;5047319;28;20094;-68
2022/06/13 11:23:08;;;;;;;4.68;1.35;;;17.10;99.90;;;;;;5050852;28;20056;-70
2022/06/13 11:25:35;;;;;;;13.73;1.92;;;17.20;99.90;;;;;;5046098;28;20053;-69
2022/06/13 11:28:21;;;;;;;9.52;1.73;;;16.90;99.90;;;;;;5055306;28;20313;-68
2022/06/13 11:30:53;;;;;;;7.13;1.10;;;17.00;99.90;;;;;;5044630;28;20048;-68
2022/06/13 11:33:29;;;;;;;2.22;1.00;;;17.10;99.90;;;;;;5045884;28;20056;-69
2022/06/13 11:36:12;;;;;;;5.40;1.10;;;17.10;99.90;;;;;;5045785;28;20535;-68
2022/06/13 11:38:54;;;;;;;7.70;1.90;;;17.10;99.90;;;;;;5045163;28;20048;-68
2022/06/13 11:41:19;;;;;;;;;;;17.00;99.90;;;;;;5046615;28;20110;-68
2022/06/13 11:43:50;;;;;;;7.72;1.73;;;16.90;99.90;;;;;;5044037;28;20384;-66
2022/06/13 11:46:28;;;;;;;4.07;1.20;;;17.10;99.90;;;;;;5048988;28;20048;-66
2022/06/13 11:48:56;;;;;;;6.70;1.75;;;17.20;99.90;;;;;;5050759;28;20137;-66
2022/06/13 11:51:28;;;;;;;7.22;2.00;;;17.10;99.90;;;;;;5058701;28;20045;-66
2022/06/13 11:53:59;;;;;;;4.80;1.25;;;17.00;99.90;;;;;;5054106;28;20049;-68
2022/06/13 11:56:29;;;;;;;5.18;1.77;;;17.10;99.90;;;;;;5051024;28;20541;-66
2022/06/13 11:58:58;;;;;;;3.72;1.25;;;17.20;99.90;;;;;;5049545;28;20049;-69
2022/06/13 12:01:32;;;;;;;8.13;1.65;;;17.20;99.90;;;;;;5057769;28;20040;-66
2022/06/13 12:04:12;;;;;;;6.55;2.03;;;17.10;99.90;;;;;;5053946;28;20036;-69
2022/06/13 12:06:44;;;;;;;4.47;1.73;;;17.10;99.90;;;;;;5046526;28;20049;-68
2022/06/13 12:09:15;;;;;;;4.25;1.65;;;17.00;99.90;;;;;;5047094;28;20052;-69
2022/06/13 12:11:47;;;;;;;6.55;1.88;;;17.00;99.90;;;;;;5054966;28;20045;-67
2022/06/13 12:14:13;;;;;;;12.30;2.08;;;17.10;99.90;;;;;;5058915;28;20048;-69
2022/06/13 12:16:56;;;;;;;4.13;1.27;;;17.10;99.90;;;;;;5062704;28;20233;-66
2022/06/13 12:19:33;;;;;;;4.50;1.40;;;17.00;99.90;;;;;;5048803;28;20060;-66
2022/06/13 12:21:59;;;;;;;7.00;1.23;;;16.90;99.90;;;;;;5052198;28;20052;-66
2022/06/13 12:24:34;;;;;;;4.53;1.38;;;16.90;99.90;;;;;;5050716;28;20047;-66
2022/06/13 12:27:11;;;;;;;10.43;1.50;;;16.90;99.90;;;;;;5048651;28;20051;-68
2022/06/13 12:29:46;;;;;;;4.03;1.20;;;16.90;99.90;;;;;;5048341;28;20044;-71
2022/06/13 12:32:18;;;;;;;6.95;1.60;;;17.00;99.90;;;;;;5057074;28;20617;-68
2022/06/13 12:35:01;;;;;;;4.38;1.25;;;17.10;99.90;;;;;;5058481;28;20146;-68
2022/06/13 12:37:42;;;;;;;4.93;1.27;;;17.20;99.90;;;;;;5049410;28;20406;-67
2022/06/13 12:40:39;;;;;;;4.28;1.40;;;17.30;99.90;;;;;;5055333;28;20048;-70
2022/06/13 12:43:17;;;;;;;3.83;0.95;;;17.30;99.90;;;;;;5059866;28;20052;-66
2022/06/13 12:46:18;;;;;;;5.70;1.65;;;17.50;99.90;;;;;;5068606;28;20409;-68
2022/06/13 12:48:56;;;;;;;4.60;1.05;;;17.20;99.90;;;;;;5050960;28;20924;-66
2022/06/13 12:51:51;;;;;;;2.35;1.02;;;17.10;99.90;;;;;;5066249;28;20147;-66
2022/06/13 12:54:19;;;;;;;4.47;1.13;;;17.10;99.90;;;;;;5065186;28;20063;-67
2022/06/13 12:56:59;;;;;;;3.40;0.90;;;17.00;99.90;;;;;;5067643;28;20432;-66
2022/06/13 12:59:35;;;;;;;5.93;1.00;;;16.90;99.90;;;;;;5066700;28;20044;-66
2022/06/13 13:02:21;;;;;;;5.10;1.02;;;16.90;99.90;;;;;;5059870;28;20521;-67
2022/06/13 13:04:55;;;;;;;2.65;0.80;;;16.90;99.90;;;;;;5055779;28;20052;-66
2022/06/13 13:07:45;;;;;;;3.60;1.13;;;17.00;99.90;;;;;;5049742;28;20482;-69
2022/06/13 13:10:27;;;;;;;6.72;1.20;;;17.10;99.90;;;;;;5047639;28;20494;-71
2022/06/13 13:13:27;;;;;;;2.78;1.17;;;17.40;99.90;;;;;;5044838;28;20045;-66
2022/06/13 13:15:58;;;;;;;1.70;0.93;;;17.50;99.90;;;;;;5064464;28;20108;-68
2022/06/13 13:18:36;;;;;;;4.00;1.23;;;17.60;99.90;;;;;;5056171;28;20533;-67
2022/06/13 13:21:21;;;;;;;2.33;0.57;;;17.60;99.90;;;;;;5053378;28;20500;-69
2022/06/13 13:23:57;;;;;;;4.95;1.08;;;17.50;99.90;;;;;;5047310;28;20585;-67
2022/06/13 13:26:47;;;;;;;2.47;0.75;;;17.70;99.90;;;;;;5065782;28;20044;-69
2022/06/13 13:29:31;;;;;;;4.95;0.95;;;18.00;99.90;;;;;;5066942;28;20123;-70
2022/06/13 13:32:09;;;;;;;2.38;0.68;;;18.10;99.90;;;;;;5069008;28;20405;-66
2022/06/13 13:34:38;;;;;;;2.75;0.80;;;18.20;99.90;;;;;;5067228;28;20049;-69
2022/06/13 13:37:03;;;;;;;4.47;0.85;;;18.20;99.90;;;;;;5047543;28;20052;-66
2022/06/13 13:39:42;;;;;;;5.82;1.00;;;18.10;99.90;;;;;;5047435;28;20047;-66
2022/06/13 13:42:48;;;;;;;4.13;0.90;;;18.00;99.90;;;;;;5047636;28;20053;-65